Time;durP1;ratioP1;P1;durP2;ratioP2;P2;SDS_P1;SDS_P2;PMS_P1;PMS_P2;Temp;Humidity;BMP_temperature;BMP_pressure;BME280_temperature;BME280_humidity;BME280_pressure;Samples;Min_cycle;Max_cycle;Signal;HPM_P1;HPM_P2
2023/03/14 00:00:05;;;;;;;5.87;3.10;;;;;;;;;;5110684;27;20035;-63
2023/03/14 00:02:35;;;;;;;7.00;3.40;;;;;;;;;;5129079;27;20039;-63
2023/03/14 00:05:06;;;;;;;9.67;3.17;;;;;;;;;;5132376;27;20054;-63
2023/03/14 00:07:39;;;;;;;7.60;3.03;;;;;;;;;;5134596;27;20031;-62
2023/03/14 00:10:08;;;;;;;4.22;3.10;;;;;;;;;;5117735;27;20089;-62
2023/03/14 00:12:35;;;;;;;3.97;2.43;;;;;;;;;;5114094;28;20058;-62
2023/03/14 00:15:03;;;;;;;5.07;2.83;;;;;;;;;;5128631;27;20011;-62
2023/03/14 00:17:30;;;;;;;5.43;2.97;;;;;;;;;;5130511;27;20077;-62
2023/03/14 00:19:57;;;;;;;6.47;3.20;;;;;;;;;;5128901;27;20015;-61
2023/03/14 00:22:23;;;;;;;5.13;2.57;;;;;;;;;;5121103;27;20558;-62
2023/03/14 00:24:51;;;;;;;5.17;2.70;;;;;;;;;;5119299;27;20019;-62
2023/03/14 00:27:17;;;;;;;5.90;3.37;;;;;;;;;;5130675;27;20030;-62
2023/03/14 00:29:44;;;;;;;9.70;2.77;;;;;;;;;;5116102;27;20027;-62
2023/03/14 00:32:11;;;;;;;8.33;2.87;;;;;;;;;;5113601;28;20051;-62
2023/03/14 00:34:38;;;;;;;4.33;2.80;;;;;;;;;;5113550;28;20044;-62
2023/03/14 00:37:04;;;;;;;4.93;2.53;;;;;;;;;;5112721;28;20020;-62
2023/03/14 00:39:31;;;;;;;4.07;2.60;;;;;;;;;;5110108;28;20447;-62
2023/03/14 00:41:58;;;;;;;3.90;2.70;;;;;;;;;;5106946;28;20058;-62
2023/03/14 00:44:25;;;;;;;12.57;3.83;;;;;;;;;;5105583;28;20169;-62
2023/03/14 00:46:51;;;;;;;17.20;3.90;;;;;;;;;;5108054;28;20508;-62
2023/03/14 00:49:18;;;;;;;7.73;3.17;;;;;;;;;;5109699;28;20019;-62
2023/03/14 00:51:45;;;;;;;9.47;4.43;;;;;;;;;;5112977;28;20431;-62
2023/03/14 00:54:12;;;;;;;8.00;4.40;;;;;;;;;;5112626;28;20072;-62
2023/03/14 00:56:38;;;;;;;5.33;3.60;;;;;;;;;;5112734;28;20024;-62
2023/03/14 00:59:05;;;;;;;7.83;3.63;;;;;;;;;;5112966;28;20481;-62
2023/03/14 01:01:32;;;;;;;6.47;3.23;;;;;;;;;;5110293;28;20024;-62
2023/03/14 01:03:58;;;;;;;4.43;3.23;;;;;;;;;;5107502;28;20031;-61
2023/03/14 01:06:26;;;;;;;7.17;4.17;;;;;;;;;;5107385;28;20352;-62
2023/03/14 01:08:54;;;;;;;5.90;4.23;;;;;;;;;;5107426;28;20024;-61
2023/03/14 01:11:22;;;;;;;8.20;3.67;;;;;;;;;;5108050;28;20465;-61
2023/03/14 01:13:49;;;;;;;29.50;3.87;;;;;;;;;;5112774;28;20027;-61
2023/03/14 01:16:16;;;;;;;34.60;5.87;;;;;;;;;;5113003;28;20028;-61
2023/03/14 01:18:44;;;;;;;9.20;3.77;;;;;;;;;;5112142;28;20022;-61
2023/03/14 01:21:24;;;;;;;6.23;2.87;;;;;;;;;;5112735;28;20028;-61
2023/03/14 01:23:51;;;;;;;7.30;3.30;;;;;;;;;;5110311;28;20043;-61
2023/03/14 01:26:19;;;;;;;14.03;3.40;;;;;;;;;;5106620;28;20033;-61
2023/03/14 01:28:46;;;;;;;7.80;4.13;;;;;;;;;;5106926;28;20035;-62
2023/03/14 01:31:13;;;;;;;6.77;3.67;;;;;;;;;;5107417;28;20407;-61
2023/03/14 01:33:41;;;;;;;8.13;4.13;;;;;;;;;;5107853;28;20076;-61
2023/03/14 01:36:08;;;;;;;10.40;3.40;;;;;;;;;;5112387;28;20073;-61
2023/03/14 01:38:35;;;;;;;5.60;3.87;;;;;;;;;;5112261;28;20474;-62
2023/03/14 01:41:03;;;;;;;4.87;3.10;;;;;;;;;;5112628;28;20506;-62
2023/03/14 01:43:30;;;;;;;4.47;2.67;;;;;;;;;;5112402;28;20028;-61
2023/03/14 01:45:56;;;;;;;4.20;2.27;;;;;;;;;;5110512;28;20031;-61
2023/03/14 01:48:23;;;;;;;7.03;2.37;;;;;;;;;;5107242;28;20076;-61
2023/03/14 01:50:50;;;;;;;4.70;3.30;;;;;;;;;;5106418;28;20024;-61
2023/03/14 01:53:21;;;;;;;5.90;2.63;;;;;;;;;;5106581;28;20023;-61
2023/03/14 01:55:48;;;;;;;4.63;2.83;;;;;;;;;;5107100;28;20032;-61
2023/03/14 01:58:15;;;;;;;3.40;2.77;;;;;;;;;;5094157;28;20377;-61
2023/03/14 02:00:42;;;;;;;6.20;3.43;;;;;;;;;;5112015;28;20600;-61
2023/03/14 02:03:13;;;;;;;12.90;3.40;;;;;;;;;;5112216;28;20036;-61
2023/03/14 02:05:41;;;;;;;4.30;2.93;;;;;;;;;;5111430;28;20023;-61
2023/03/14 02:08:10;;;;;;;6.03;2.33;;;;;;;;;;5111640;28;20034;-62
2023/03/14 02:10:42;;;;;;;7.03;3.17;;;;;;;;;;5106828;28;20035;-61
2023/03/14 02:13:09;;;;;;;4.83;3.37;;;;;;;;;;5107026;28;20036;-61
2023/03/14 02:15:36;;;;;;;6.47;3.43;;;;;;;;;;5106628;28;20474;-61
2023/03/14 02:18:04;;;;;;;6.27;4.10;;;;;;;;;;5106280;28;20035;-61
2023/03/14 02:20:31;;;;;;;3.87;3.17;;;;;;;;;;5111698;28;20024;-61
2023/03/14 02:22:58;;;;;;;5.00;3.30;;;;;;;;;;5111999;28;20035;-61
2023/03/14 02:25:32;;;;;;;3.87;2.43;;;;;;;;;;5111868;28;20054;-61
2023/03/14 02:27:59;;;;;;;4.13;2.88;;;;;;;;;;5112044;28;20020;-61
2023/03/14 02:30:30;;;;;;;10.13;3.47;;;;;;;;;;5111112;28;20024;-61
2023/03/14 02:32:59;;;;;;;5.73;3.83;;;;;;;;;;5106176;28;20027;-61
2023/03/14 02:35:28;;;;;;;4.80;3.63;;;;;;;;;;5087682;28;20027;-62
2023/03/14 02:38:18;;;;;;;5.57;3.37;;;;;;;;;;5106565;28;20027;-61
2023/03/14 02:40:45;;;;;;;5.27;3.43;;;;;;;;;;5081581;28;20111;-61
2023/03/14 02:43:11;;;;;;;5.87;4.00;;;;;;;;;;5093698;28;20423;-61
2023/03/14 02:45:40;;;;;;;3.67;2.47;;;;;;;;;;5111827;28;20028;-61
2023/03/14 02:48:09;;;;;;;5.27;3.23;;;;;;;;;;5111251;28;20027;-61
2023/03/14 02:50:35;;;;;;;17.17;3.53;;;;;;;;;;5114138;28;20033;-62
2023/03/14 02:53:02;;;;;;;8.50;3.43;;;;;;;;;;5113537;28;20019;-62
2023/03/14 02:55:29;;;;;;;3.70;2.87;;;;;;;;;;5109833;28;20028;-62
2023/03/14 02:57:56;;;;;;;9.23;4.30;;;;;;;;;;5110121;28;20024;-62
2023/03/14 03:00:22;;;;;;;4.87;3.67;;;;;;;;;;5109225;28;20034;-61
2023/03/14 03:02:49;;;;;;;5.17;3.17;;;;;;;;;;5109994;28;20096;-61
2023/03/14 03:05:16;;;;;;;5.63;4.00;;;;;;;;;;5114857;28;20012;-62
2023/03/14 03:07:42;;;;;;;6.30;4.60;;;;;;;;;;5115478;28;20370;-61
2023/03/14 03:10:09;;;;;;;5.87;3.57;;;;;;;;;;5115144;28;20028;-61
2023/03/14 03:12:36;;;;;;;5.37;3.30;;;;;;;;;;5114997;28;20095;-61
2023/03/14 03:15:03;;;;;;;8.43;3.83;;;;;;;;;;5113722;28;20493;-62
2023/03/14 03:17:30;;;;;;;9.60;4.10;;;;;;;;;;5109588;28;20556;-61
2023/03/14 03:19:56;;;;;;;6.00;3.67;;;;;;;;;;5108996;28;20378;-62
2023/03/14 03:22:23;;;;;;;8.53;3.33;;;;;;;;;;5109070;28;20506;-62
2023/03/14 03:24:50;;;;;;;4.60;3.20;;;;;;;;;;5108699;28;20027;-61
2023/03/14 03:27:16;;;;;;;4.37;3.00;;;;;;;;;;5114011;28;20019;-61
2023/03/14 03:29:43;;;;;;;5.37;3.53;;;;;;;;;;5114384;28;20474;-61
2023/03/14 03:32:10;;;;;;;8.87;4.60;;;;;;;;;;5114701;28;20462;-61
2023/03/14 03:34:37;;;;;;;13.50;5.80;;;;;;;;;;5114050;28;20056;-62
2023/03/14 03:37:03;;;;;;;2.77;2.23;;;;;;;;;;5114551;28;20050;-62
2023/03/14 03:39:30;;;;;;;19.13;4.03;;;;;;;;;;5108958;28;20031;-61
2023/03/14 03:41:57;;;;;;;5.37;3.03;;;;;;;;;;5108483;28;20027;-62
2023/03/14 03:44:23;;;;;;;10.57;4.83;;;;;;;;;;5108839;28;20028;-62
2023/03/14 03:46:50;;;;;;;6.10;3.83;;;;;;;;;;5108914;28;20063;-62
2023/03/14 03:49:17;;;;;;;6.30;3.33;;;;;;;;;;5113638;28;20559;-62
2023/03/14 03:51:43;;;;;;;5.50;3.63;;;;;;;;;;5114426;28;20377;-62
2023/03/14 03:54:10;;;;;;;6.53;4.43;;;;;;;;;;5113894;28;20058;-62
2023/03/14 03:56:37;;;;;;;17.30;5.07;;;;;;;;;;5114415;28;20032;-62
2023/03/14 03:59:03;;;;;;;8.43;5.10;;;;;;;;;;5095388;28;20019;-62
2023/03/14 04:01:30;;;;;;;10.00;5.53;;;;;;;;;;5109706;28;20470;-63
2023/03/14 04:03:57;;;;;;;4.93;3.77;;;;;;;;;;5108247;28;20031;-62
2023/03/14 04:06:23;;;;;;;8.27;3.83;;;;;;;;;;5108523;28;20066;-62
2023/03/14 04:08:50;;;;;;;5.30;4.10;;;;;;;;;;5091157;28;20046;-62
2023/03/14 04:11:17;;;;;;;10.43;4.43;;;;;;;;;;5112783;28;20034;-62
2023/03/14 08:16:52;;;;;;;3.97;3.30;;;;;;;;;;5168275;27;20126;-63
2023/03/14 08:19:19;;;;;;;3.10;2.67;;;;;;;;;;5049330;27;2658030;-62
2023/03/14 08:21:46;;;;;;;3.77;2.90;;;;;;;;;;5125202;28;20027;-62
2023/03/14 08:24:13;;;;;;;3.33;2.47;;;;;;;;;;5125279;28;20080;-62
2023/03/14 08:26:39;;;;;;;3.37;2.93;;;;;;;;;;5125523;28;20067;-61
2023/03/14 08:29:07;;;;;;;4.27;2.97;;;;;;;;;;5126521;28;20025;-61
2023/03/14 08:31:37;;;;;;;6.07;4.13;;;;;;;;;;5129665;28;20484;-62
2023/03/14 08:34:04;;;;;;;3.80;2.73;;;;;;;;;;5130180;28;20031;-61
2023/03/14 08:36:30;;;;;;;3.90;3.00;;;;;;;;;;5130142;28;20047;-61
2023/03/14 08:38:57;;;;;;;7.30;3.30;;;;;;;;;;5129890;28;20059;-63
2023/03/14 08:41:24;;;;;;;5.50;2.83;;;;;;;;;;5129339;28;20051;-61
2023/03/14 08:43:51;;;;;;;4.10;2.73;;;;;;;;;;5124887;28;20466;-62
2023/03/14 08:46:17;;;;;;;3.47;2.70;;;;;;;;;;5124473;28;20054;-62
2023/03/14 08:48:44;;;;;;;6.30;3.03;;;;;;;;;;5124987;28;20015;-62
2023/03/14 08:51:12;;;;;;;4.23;3.27;;;;;;;;;;5124929;28;20023;-62
2023/03/14 08:53:39;;;;;;;3.97;3.37;;;;;;;;;;5126040;28;20016;-62
2023/03/14 08:56:06;;;;;;;6.20;3.37;;;;;;;;;;5129539;28;20051;-62
2023/03/14 08:58:33;;;;;;;5.87;4.53;;;;;;;;;;5129576;28;20034;-61
2023/03/14 09:01:00;;;;;;;5.70;3.57;;;;;;;;;;5129112;28;20373;-62
2023/03/14 09:03:28;;;;;;;3.53;2.97;;;;;;;;;;5129471;28;20020;-62
2023/03/14 09:05:54;;;;;;;3.17;2.83;;;;;;;;;;5129084;28;20032;-62
2023/03/14 09:08:21;;;;;;;4.73;3.33;;;;;;;;;;5124444;28;20023;-62
2023/03/14 09:10:48;;;;;;;4.30;2.53;;;;;;;;;;5124607;28;20030;-62
2023/03/14 09:13:14;;;;;;;4.77;3.47;;;;;;;;;;5124332;28;20035;-62
2023/03/14 09:15:42;;;;;;;5.43;4.53;;;;;;;;;;5122700;28;20542;-62
2023/03/14 09:18:08;;;;;;;4.13;3.20;;;;;;;;;;5111122;28;20034;-61
2023/03/14 09:20:35;;;;;;;5.90;3.73;;;;;;;;;;5115539;28;20438;-62
2023/03/14 09:23:02;;;;;;;3.00;2.53;;;;;;;;;;5115610;28;20024;-62
2023/03/14 09:25:29;;;;;;;3.47;3.17;;;;;;;;;;5115309;28;20487;-62
2023/03/14 09:27:55;;;;;;;3.63;2.90;;;;;;;;;;5115505;28;20027;-62
2023/03/14 09:30:22;;;;;;;19.87;3.97;;;;;;;;;;5115367;28;20043;-61
2023/03/14 09:32:49;;;;;;;4.73;3.53;;;;;;;;;;5109833;28;20279;-62
2023/03/14 09:35:15;;;;;;;3.60;3.10;;;;;;;;;;5090325;28;20268;-62
2023/03/14 09:37:42;;;;;;;3.33;2.83;;;;;;;;;;5089156;28;20267;-61
2023/03/14 09:40:13;;;;;;;3.93;3.17;;;;;;;;;;5089122;28;20032;-61
2023/03/14 09:42:41;;;;;;;5.10;3.87;;;;;;;;;;5093083;28;20299;-61
2023/03/14 09:45:18;;;;;;;3.67;2.90;;;;;;;;;;5094263;28;20043;-63
2023/03/14 09:47:45;;;;;;;4.10;3.07;;;;;;;;;;5094062;28;20081;-62
2023/03/14 09:50:15;;;;;;;3.50;2.93;;;;;;;;;;5094637;28;20273;-61
2023/03/14 09:52:46;;;;;;;2.80;2.40;;;;;;;;;;5094508;28;20016;-61
2023/03/14 09:55:14;;;;;;;2.80;2.50;;;;;;;;;;5089068;28;20024;-62
2023/03/14 09:57:42;;;;;;;5.70;4.00;;;;;;;;;;5089091;28;20260;-61
2023/03/14 10:00:15;;;;;;;4.97;3.40;;;;;;;;;;5088415;28;20752;-62
2023/03/14 10:02:52;;;;;;;2.97;2.67;;;;;;;;;;5088778;28;20272;-61
2023/03/14 10:05:20;;;;;;;4.33;3.50;;;;;;;;;;5092930;28;20281;-62
2023/03/14 10:07:46;;;;;;;4.47;3.77;;;;;;;;;;5094372;28;20288;-62
2023/03/14 10:10:18;;;;;;;3.93;3.50;;;;;;;;;;5094190;28;20252;-62
2023/03/14 10:12:46;;;;;;;9.00;4.03;;;;;;;;;;5094035;28;20259;-63
2023/03/14 10:15:17;;;;;;;9.20;6.07;;;;;;;;;;5093607;28;20272;-61
2023/03/14 10:17:51;;;;;;;8.83;4.80;;;;;;;;;;5088357;28;20680;-63
2023/03/14 10:23:25;;;;;;;6.77;4.70;;;;;;;;;;5088280;28;20263;-62
2023/03/14 10:26:04;;;;;;;5.77;4.47;;;;;;;;;;5088975;28;20486;-61
2023/03/14 10:28:33;;;;;;;4.43;3.97;;;;;;;;;;5092544;28;20257;-61
2023/03/14 10:31:00;;;;;;;5.53;4.33;;;;;;;;;;5093458;28;20261;-61
2023/03/14 10:33:28;;;;;;;10.87;4.40;;;;;;;;;;5073714;28;20334;-61
2023/03/14 10:35:56;;;;;;;7.27;4.57;;;;;;;;;;5073644;28;20257;-62
2023/03/14 10:38:24;;;;;;;5.77;4.03;;;;;;;;;;5071277;28;20265;-62
2023/03/14 10:40:52;;;;;;;7.83;3.83;;;;;;;;;;5067833;28;20274;-62
2023/03/14 10:43:21;;;;;;;4.87;3.63;;;;;;;;;;5087690;28;20337;-62
2023/03/14 10:45:58;;;;;;;6.07;4.13;;;;;;;;;;5087957;28;20631;-61
2023/03/14 10:48:35;;;;;;;4.67;3.80;;;;;;;;;;5089658;28;20308;-61
2023/03/14 10:51:05;;;;;;;4.07;3.43;;;;;;;;;;5093032;28;20261;-62
2023/03/14 10:53:40;;;;;;;5.90;4.83;;;;;;;;;;5092916;28;20313;-61
2023/03/14 10:56:07;;;;;;;4.90;4.40;;;;;;;;;;5093179;28;20271;-62
2023/03/14 10:58:39;;;;;;;6.17;4.77;;;;;;;;;;5093307;28;20458;-62
2023/03/14 11:01:05;;;;;;;4.50;3.80;;;;;;;;;;5089966;28;20310;-62
2023/03/14 11:03:33;;;;;;;4.70;3.83;;;;;;;;;;5087294;28;20268;-61
2023/03/14 11:06:05;;;;;;;8.70;5.37;;;;;;;;;;5087445;28;20316;-61
2023/03/14 11:08:32;;;;;;;4.27;3.43;;;;;;;;;;5087586;28;20282;-61
2023/03/14 11:11:09;;;;;;;5.23;4.07;;;;;;;;;;5089898;28;20253;-62
2023/03/14 11:14:11;;;;;;;4.40;4.00;;;;;;;;;;5092537;28;20263;-62
2023/03/14 11:16:56;;;;;;;7.03;5.33;;;;;;;;;;4991322;28;20720;-61
2023/03/14 11:19:26;;;;;;;4.65;3.70;;;;;;;;;;5086355;28;20296;-61
2023/03/14 11:21:52;;;;;;;5.50;4.77;;;;;;;;;;5092760;28;20118;-61
2023/03/14 11:24:34;;;;;;;5.33;4.70;;;;;;;;;;5086678;28;20956;-61
2023/03/14 11:27:07;;;;;;;8.03;5.37;;;;;;;;;;5087175;28;20256;-61
2023/03/14 11:29:55;;;;;;;5.13;4.63;;;;;;;;;;5086988;28;20260;-62
2023/03/14 11:32:43;;;;;;;10.30;5.73;;;;;;;;;;5086998;28;20281;-61
2023/03/14 11:35:16;;;;;;;6.87;5.10;;;;;;;;;;5092662;28;20657;-62
2023/03/14 11:37:47;;;;;;;3.53;3.23;;;;;;;;;;5092581;28;20257;-62
2023/03/14 11:40:14;;;;;;;6.00;5.17;;;;;;;;;;5091995;28;20790;-62
2023/03/14 11:42:43;;;;;;;5.67;4.80;;;;;;;;;;5092244;28;20372;-61
2023/03/14 11:45:39;;;;;;;7.27;6.00;;;;;;;;;;5090089;28;20276;-62
2023/03/14 11:48:06;;;;;;;;;;;;;;;;;;5069764;28;20271;-62
2023/03/14 11:50:33;;;;;;;5.13;4.10;;;;;;;;;;5086838;28;19987;-62
2023/03/14 11:53:06;;;;;;;5.90;5.30;;;;;;;;;;5086577;28;20300;-62
2023/03/14 11:55:38;;;;;;;6.03;5.43;;;;;;;;;;5089586;28;20332;-61
2023/03/14 11:58:12;;;;;;;5.23;4.50;;;;;;;;;;5092338;28;20256;-62
2023/03/14 12:00:39;;;;;;;7.20;6.00;;;;;;;;;;5091900;28;20249;-62
2023/03/14 12:03:12;;;;;;;6.23;5.63;;;;;;;;;;5091998;28;20742;-62
2023/03/14 12:05:53;;;;;;;7.00;5.97;;;;;;;;;;5092371;28;20286;-62
2023/03/14 12:08:22;;;;;;;7.60;5.53;;;;;;;;;;5087762;28;20291;-62
2023/03/14 12:10:51;;;;;;;8.73;5.23;;;;;;;;;;5086510;28;20261;-62
2023/03/14 12:13:18;;;;;;;6.50;5.87;;;;;;;;;;5086419;28;20300;-62
2023/03/14 12:15:50;;;;;;;9.20;5.60;;;;;;;;;;5086524;28;20271;-61
2023/03/14 12:18:43;;;;;;;6.57;5.50;;;;;;;;;;5090547;28;20603;-61
2023/03/14 12:21:11;;;;;;;5.03;4.53;;;;;;;;;;5086552;28;20310;-62
2023/03/14 12:23:44;;;;;;;5.00;4.50;;;;;;;;;;5091509;28;20693;-61
2023/03/14 12:26:13;;;;;;;6.00;5.40;;;;;;;;;;5091994;28;20650;-61
2023/03/14 12:28:44;;;;;;;3.90;3.50;;;;;;;;;;5092034;28;20263;-61
2023/03/14 12:31:32;;;;;;;6.50;4.33;;;;;;;;;;5086569;28;20367;-61
2023/03/14 12:34:25;;;;;;;4.93;4.43;;;;;;;;;;5086155;28;20615;-61
2023/03/14 12:37:20;;;;;;;4.93;4.43;;;;;;;;;;5082652;28;20276;-62
2023/03/14 12:40:06;;;;;;;8.48;6.38;;;;;;;;;;5071363;28;20272;-61
2023/03/14 12:42:45;;;;;;;12.23;5.97;;;;;;;;;;5091751;28;20016;-62
2023/03/14 12:45:15;;;;;;;8.67;6.43;;;;;;;;;;5091952;28;20036;-61
2023/03/14 12:47:51;;;;;;;7.53;6.00;;;;;;;;;;5091992;28;20295;-61
2023/03/14 12:50:24;;;;;;;4.80;4.33;;;;;;;;;;5091563;28;20351;-61
2023/03/14 12:53:00;;;;;;;7.53;6.17;;;;;;;;;;5089995;28;20261;-61
2023/03/14 12:55:36;;;;;;;7.10;5.43;;;;;;;;;;5089789;28;20264;-61
2023/03/14 12:58:17;;;;;;;4.87;4.37;;;;;;;;;;5089963;28;20255;-62
2023/03/14 13:00:44;;;;;;;17.53;6.23;;;;;;;;;;5089407;28;20604;-62
2023/03/14 13:03:16;;;;;;;6.03;4.80;;;;;;;;;;5094716;28;20257;-62
2023/03/14 13:05:54;;;;;;;5.53;4.73;;;;;;;;;;5095252;28;20692;-61
2023/03/14 13:08:33;;;;;;;6.43;4.30;;;;;;;;;;5095383;28;20726;-62
2023/03/14 13:11:00;;;;;;;5.20;4.67;;;;;;;;;;5094713;28;20273;-61
2023/03/14 13:13:27;;;;;;;6.97;5.23;;;;;;;;;;5094186;28;20762;-63
2023/03/14 13:15:59;;;;;;;8.90;6.37;;;;;;;;;;5089671;28;20351;-61
2023/03/14 13:18:33;;;;;;;11.03;6.53;;;;;;;;;;5089584;28;20264;-61
2023/03/14 13:21:03;;;;;;;7.23;6.07;;;;;;;;;;5089309;28;20292;-61
2023/03/14 13:23:30;;;;;;;11.27;7.17;;;;;;;;;;5089894;28;20253;-61
2023/03/14 13:25:58;;;;;;;7.50;6.70;;;;;;;;;;5094448;28;20284;-61
2023/03/14 13:28:25;;;;;;;36.53;11.10;;;;;;;;;;5094740;28;20551;-62
2023/03/14 13:30:56;;;;;;;10.47;9.37;;;;;;;;;;5094689;28;20326;-61
2023/03/14 13:33:23;;;;;;;14.43;12.30;;;;;;;;;;5094451;28;20276;-61
2023/03/14 13:35:55;;;;;;;15.00;13.50;;;;;;;;;;5093475;28;20289;-61
2023/03/14 13:38:23;;;;;;;19.77;15.67;;;;;;;;;;5088611;28;20253;-61
2023/03/14 13:40:51;;;;;;;25.47;19.07;;;;;;;;;;5089115;28;20140;-61
2023/03/14 13:43:20;;;;;;;26.20;18.43;;;;;;;;;;5088748;28;20024;-61
2023/03/14 13:45:50;;;;;;;38.73;22.97;;;;;;;;;;5089451;28;20115;-62
2023/03/14 13:48:17;;;;;;;38.17;24.63;;;;;;;;;;5094727;28;20023;-62
2023/03/14 13:51:04;;;;;;;31.97;23.17;;;;;;;;;;5093581;28;20024;-62
2023/03/14 13:53:31;;;;;;;26.10;21.30;;;;;;;;;;5094322;28;20055;-62
2023/03/14 13:55:57;;;;;;;31.63;23.43;;;;;;;;;;5094444;28;20359;-62
2023/03/14 13:58:26;;;;;;;40.20;28.70;;;;;;;;;;5092282;28;20024;-62
2023/03/14 14:01:14;;;;;;;34.93;25.87;;;;;;;;;;5088321;28;20027;-63
2023/03/14 14:03:42;;;;;;;27.07;19.33;;;;;;;;;;5087696;28;20070;-62
2023/03/14 14:06:11;;;;;;;9.80;8.80;;;;;;;;;;5088145;28;20117;-62
2023/03/14 14:08:41;;;;;;;9.90;8.53;;;;;;;;;;5090903;28;20055;-62
2023/03/14 14:11:10;;;;;;;8.73;7.83;;;;;;;;;;5094078;28;20111;-62
2023/03/14 14:13:36;;;;;;;10.00;6.30;;;;;;;;;;5093757;28;20024;-62
2023/03/14 14:16:04;;;;;;;21.93;7.47;;;;;;;;;;5093734;28;20501;-62
2023/03/14 14:18:34;;;;;;;6.40;5.47;;;;;;;;;;5094029;28;20035;-62
2023/03/14 14:21:01;;;;;;;7.63;5.80;;;;;;;;;;5090678;28;20027;-63
2023/03/14 14:23:29;;;;;;;7.90;5.57;;;;;;;;;;5087318;28;20114;-62
2023/03/14 14:25:59;;;;;;;7.97;6.50;;;;;;;;;;5087199;28;20043;-62
2023/03/14 14:28:30;;;;;;;7.53;4.90;;;;;;;;;;5087578;28;20027;-63
2023/03/14 14:31:15;;;;;;;8.43;6.17;;;;;;;;;;5090765;28;20409;-62
2023/03/14 14:33:46;;;;;;;8.13;5.90;;;;;;;;;;5093795;28;20479;-62
2023/03/14 14:36:32;;;;;;;6.83;4.93;;;;;;;;;;5093346;28;20095;-63
2023/03/14 14:39:12;;;;;;;8.37;6.67;;;;;;;;;;5085471;28;20028;-62
2023/03/14 14:41:41;;;;;;;8.30;6.17;;;;;;;;;;5093771;28;20024;-62
2023/03/14 14:44:12;;;;;;;9.33;6.70;;;;;;;;;;5088367;28;20024;-62
2023/03/14 14:46:38;;;;;;;6.43;5.40;;;;;;;;;;5087894;28;20032;-63
2023/03/14 14:49:09;;;;;;;7.90;5.67;;;;;;;;;;5087036;28;20034;-63
2023/03/14 14:51:56;;;;;;;7.73;4.83;;;;;;;;;;5085860;28;20016;-63
2023/03/14 14:54:34;;;;;;;10.57;6.80;;;;;;;;;;5091129;28;20031;-63
2023/03/14 14:57:05;;;;;;;7.13;5.50;;;;;;;;;;5093025;28;20374;-62
2023/03/14 14:59:33;;;;;;;11.43;5.57;;;;;;;;;;5092623;28;20028;-63
2023/03/14 15:02:01;;;;;;;10.90;5.23;;;;;;;;;;5093218;28;20482;-62
2023/03/14 15:04:30;;;;;;;8.07;5.73;;;;;;;;;;5092581;28;20479;-63
2023/03/14 15:07:00;;;;;;;4.43;3.30;;;;;;;;;;5087111;28;20080;-63
2023/03/14 15:09:26;;;;;;;7.40;4.83;;;;;;;;;;5087200;28;20036;-63
2023/03/14 15:11:53;;;;;;;10.13;7.30;;;;;;;;;;5086823;28;20024;-62
2023/03/14 15:14:20;;;;;;;7.77;6.07;;;;;;;;;;5086427;28;20036;-63
2023/03/14 15:16:47;;;;;;;8.07;5.30;;;;;;;;;;5092400;28;20123;-63
2023/03/14 15:19:20;;;;;;;6.70;5.23;;;;;;;;;;5092871;28;20038;-63
2023/03/14 15:21:50;;;;;;;7.97;5.40;;;;;;;;;;5090915;28;20024;-63
2023/03/14 15:24:20;;;;;;;10.83;6.60;;;;;;;;;;5092709;28;20495;-63
2023/03/14 15:26:47;;;;;;;10.37;5.47;;;;;;;;;;5091438;28;20027;-63
2023/03/14 15:29:16;;;;;;;8.60;4.43;;;;;;;;;;5087191;28;20504;-63
2023/03/14 15:31:43;;;;;;;6.47;5.10;;;;;;;;;;5086985;28;20131;-63
2023/03/14 15:34:10;;;;;;;7.70;4.83;;;;;;;;;;5087269;28;20440;-63
2023/03/14 15:36:40;;;;;;;5.27;4.63;;;;;;;;;;5086827;28;20024;-63
2023/03/14 15:39:07;;;;;;;8.73;5.80;;;;;;;;;;5092204;28;20027;-63
2023/03/14 15:41:34;;;;;;;10.07;6.07;;;;;;;;;;5092093;28;20115;-63
2023/03/14 15:44:01;;;;;;;11.77;5.90;;;;;;;;;;5092585;28;20024;-63
2023/03/14 15:46:28;;;;;;;7.87;5.57;;;;;;;;;;5092243;28;20103;-63
2023/03/14 15:48:54;;;;;;;10.63;5.93;;;;;;;;;;5091988;28;20020;-63
2023/03/14 15:51:21;;;;;;;9.80;6.27;;;;;;;;;;5086286;28;20028;-63
2023/03/14 15:53:48;;;;;;;5.67;4.87;;;;;;;;;;5086912;28;20535;-63
2023/03/14 15:56:16;;;;;;;10.93;6.03;;;;;;;;;;5086857;28;20579;-63
2023/03/14 15:58:56;;;;;;;5.80;4.60;;;;;;;;;;5086793;28;20103;-62
2023/03/14 16:01:26;;;;;;;8.10;5.80;;;;;;;;;;5092251;28;20091;-63
2023/03/14 16:03:53;;;;;;;8.40;5.97;;;;;;;;;;5091405;28;20052;-63
2023/03/14 16:06:20;;;;;;;5.97;4.47;;;;;;;;;;5091758;28;20390;-63
2023/03/14 16:08:47;;;;;;;12.63;6.07;;;;;;;;;;5089527;28;20055;-64
2023/03/14 16:11:17;;;;;;;7.57;4.50;;;;;;;;;;5090794;28;20111;-64
2023/03/14 16:13:44;;;;;;;6.63;5.03;;;;;;;;;;5086724;28;20069;-63
2023/03/14 16:16:13;;;;;;;6.75;4.25;;;;;;;;;;5086481;28;20068;-63
2023/03/14 16:18:40;;;;;;;10.97;6.27;;;;;;;;;;5086574;28;20036;-63
2023/03/14 16:21:08;;;;;;;7.20;5.45;;;;;;;;;;5085839;28;20082;-63
2023/03/14 16:23:35;;;;;;;9.05;5.15;;;;;;;;;;5091776;28;20424;-63
2023/03/14 16:26:09;;;;;;;5.63;4.45;;;;;;;;;;5092256;28;20020;-63
2023/03/14 16:28:35;;;;;;;6.88;4.13;;;;;;;;;;5096162;28;20027;-64
2023/03/14 16:31:03;;;;;;;8.77;4.32;;;;;;;;;;5096196;28;20043;-63
2023/03/14 16:33:33;;;;;;;11.20;4.35;;;;;;;;;;5094617;28;20028;-63
2023/03/14 16:36:04;;;;;;;9.63;5.68;;;;;;;;;;5090308;28;20030;-63
2023/03/14 16:38:31;;;;;;;12.38;6.40;;;;;;;;;;5090557;28;20551;-63
2023/03/14 16:41:02;;;;;;;8.77;5.38;;;;;;;;;;5090466;28;20103;-63
2023/03/14 16:43:29;;;;;;;7.13;5.05;;;;;;;;;;5090438;28;20039;-63
2023/03/14 16:45:59;;;;;;;5.70;4.70;;;;;;;;;;5095349;28;20024;-63
2023/03/14 16:48:27;;;;;;;8.32;5.50;;;;;;;;;;5095954;28;20095;-63
2023/03/14 16:50:54;;;;;;;9.45;5.13;;;;;;;;;;5095959;28;20437;-63
2023/03/14 16:53:20;;;;;;;12.02;4.43;;;;;;;;;;5095351;28;20032;-63
2023/03/14 16:55:47;;;;;;;7.00;4.35;;;;;;;;;;5094588;28;20478;-63
2023/03/14 16:58:14;;;;;;;5.68;3.90;;;;;;;;;;5090077;28;20036;-64
2023/03/14 17:00:41;;;;;;;6.05;3.83;;;;;;;;;;5090100;28;20399;-63
2023/03/14 17:03:07;;;;;;;7.93;4.57;;;;;;;;;;5089669;28;20103;-63
2023/03/14 17:05:34;;;;;;;6.45;3.60;;;;;;;;;;5089983;28;20027;-64
2023/03/14 17:08:01;;;;;;;6.13;3.95;;;;;;;;;;5094942;28;20056;-64
2023/03/14 17:10:27;;;;;;;8.60;3.30;;;;;;;;;;5094678;28;20020;-64
2023/03/14 17:12:56;;;;;;;5.90;3.35;;;;;;;;;;5095255;28;20146;-64
2023/03/14 17:15:23;;;;;;;5.88;3.65;;;;;;;;;;5095198;28;20390;-63
2023/03/14 17:17:50;;;;;;;5.55;2.88;;;;;;;;;;5095063;28;20032;-64
2023/03/14 17:20:16;;;;;;;7.63;3.13;;;;;;;;;;5089197;28;20379;-64
2023/03/14 17:22:43;;;;;;;4.95;2.95;;;;;;;;;;5089850;28;20444;-65
2023/03/14 17:25:10;;;;;;;5.10;3.55;;;;;;;;;;5089580;28;20028;-63
2023/03/14 17:27:40;;;;;;;6.28;3.88;;;;;;;;;;5089531;28;20477;-63
2023/03/14 17:30:07;;;;;;;3.00;2.28;;;;;;;;;;5094353;28;20097;-64
2023/03/14 17:32:37;;;;;;;3.70;2.83;;;;;;;;;;5094838;28;20146;-64
2023/03/14 17:35:04;;;;;;;9.00;3.17;;;;;;;;;;5094323;28;20093;-63
2023/03/14 17:37:30;;;;;;;4.72;3.28;;;;;;;;;;5094494;28;20027;-63
2023/03/14 17:40:00;;;;;;;3.85;2.63;;;;;;;;;;5094826;28;20466;-64
2023/03/14 17:42:30;;;;;;;4.57;2.65;;;;;;;;;;5089239;28;20024;-64
2023/03/14 17:44:57;;;;;;;7.22;3.08;;;;;;;;;;5088926;28;20230;-64
2023/03/14 17:47:24;;;;;;;5.28;2.65;;;;;;;;;;5089267;28;20107;-64
2023/03/14 17:49:51;;;;;;;5.35;2.60;;;;;;;;;;5088606;28;20089;-64
2023/03/14 17:52:26;;;;;;;5.60;3.40;;;;;;;;;;5093843;28;20023;-64
2023/03/14 17:54:52;;;;;;;4.03;3.08;;;;;;;;;;5094606;28;20383;-64
2023/03/14 17:57:19;;;;;;;4.93;3.22;;;;;;;;;;5094002;28;20031;-64
2023/03/14 17:59:46;;;;;;;4.88;3.35;;;;;;;;;;5094399;28;20107;-64
2023/03/14 18:02:13;;;;;;;4.90;3.20;;;;;;;;;;5094343;28;20051;-64
2023/03/14 18:04:39;;;;;;;19.88;3.47;;;;;;;;;;5087646;28;20028;-64
2023/03/14 18:07:06;;;;;;;3.85;2.80;;;;;;;;;;5088768;28;20359;-64
2023/03/14 18:09:36;;;;;;;11.10;3.30;;;;;;;;;;5088771;28;20483;-63
2023/03/14 18:12:03;;;;;;;5.00;3.15;;;;;;;;;;5088934;28;20036;-64
2023/03/14 18:14:30;;;;;;;5.78;3.13;;;;;;;;;;5092733;28;20116;-64
2023/03/14 18:16:59;;;;;;;6.05;3.80;;;;;;;;;;5094117;28;20016;-65
2023/03/14 18:19:26;;;;;;;3.53;2.42;;;;;;;;;;5093446;28;20106;-64
2023/03/14 18:21:53;;;;;;;4.93;3.05;;;;;;;;;;5093863;28;20078;-64
2023/03/14 18:24:20;;;;;;;3.05;2.13;;;;;;;;;;5093921;28;20051;-64
2023/03/14 18:26:48;;;;;;;6.13;2.63;;;;;;;;;;5088314;28;20028;-64
2023/03/14 18:29:14;;;;;;;17.65;3.00;;;;;;;;;;5088581;28;20111;-64
2023/03/14 18:31:45;;;;;;;5.35;3.17;;;;;;;;;;5088381;28;20024;-64
2023/03/14 18:34:12;;;;;;;4.25;2.72;;;;;;;;;;5087942;28;20106;-64
2023/03/14 18:36:39;;;;;;;4.38;2.85;;;;;;;;;;5092017;28;20071;-64
2023/03/14 18:39:09;;;;;;;4.38;2.97;;;;;;;;;;5093865;28;20024;-64
2023/03/14 18:41:36;;;;;;;2.70;1.75;;;;;;;;;;5093527;28;20024;-64
2023/03/14 18:44:03;;;;;;;4.82;2.55;;;;;;;;;;5093325;28;20471;-64
2023/03/14 18:46:30;;;;;;;4.25;2.97;;;;;;;;;;5093317;28;20032;-64
2023/03/14 18:49:02;;;;;;;4.22;2.47;;;;;;;;;;5088258;28;20032;-64
2023/03/14 18:51:31;;;;;;;3.97;2.30;;;;;;;;;;5087310;28;20691;-65
2023/03/14 18:53:58;;;;;;;4.43;2.30;;;;;;;;;;5086909;28;20462;-64
2023/03/14 18:56:26;;;;;;;3.22;2.05;;;;;;;;;;5088050;28;20077;-64
2023/03/14 18:58:52;;;;;;;4.30;2.58;;;;;;;;;;5091703;28;20374;-63